Time;durP1;ratioP1;P1;durP2;ratioP2;P2;SDS_P1;SDS_P2;PMS_P1;PMS_P2;Temp;Humidity;BMP_temperature;BMP_pressure;BME280_temperature;BME280_humidity;BME280_pressure;Samples;Min_cycle;Max_cycle;Signal;HPM_P1;HPM_P2
2021/09/22 00:00:59;;;;;;;24.90;11.82;;;12.20;99.90;;;;;;5029006;28;20128;-61
2021/09/22 00:03:25;;;;;;;26.48;11.85;;;12.10;99.90;;;;;;5028698;28;20392;-61
2021/09/22 00:05:51;;;;;;;24.58;11.88;;;12.10;99.90;;;;;;5028094;28;20277;-62
2021/09/22 00:08:16;;;;;;;23.15;11.77;;;12.10;99.90;;;;;;5028101;28;20080;-61
2021/09/22 00:10:42;;;;;;;24.00;11.88;;;12.10;99.90;;;;;;5028161;28;20041;-62
2021/09/22 00:13:08;;;;;;;25.65;11.70;;;12.10;99.90;;;;;;5027752;28;20481;-62
2021/09/22 00:15:33;;;;;;;24.98;11.63;;;12.10;99.90;;;;;;5028040;28;20099;-60
2021/09/22 00:17:59;;;;;;;26.52;13.15;;;12.10;99.90;;;;;;5028091;28;20378;-63
2021/09/22 00:20:25;;;;;;;24.98;12.38;;;12.00;99.90;;;;;;5028326;28;20045;-62
2021/09/22 00:22:55;;;;;;;29.58;12.65;;;12.00;99.90;;;;;;5026832;28;20499;-63
2021/09/22 00:25:20;;;;;;;29.05;14.27;;;12.00;99.90;;;;;;5028573;28;20083;-61
2021/09/22 00:27:46;;;;;;;24.13;11.60;;;12.00;99.90;;;;;;5027674;28;20041;-61
2021/09/22 00:30:12;;;;;;;28.27;13.73;;;12.00;99.90;;;;;;5027985;28;20030;-63
2021/09/22 00:32:37;;;;;;;29.00;13.63;;;12.00;99.90;;;;;;5028418;28;20448;-63
2021/09/22 00:35:04;;;;;;;27.42;13.60;;;12.00;99.90;;;;;;5028095;28;20048;-63
2021/09/22 00:37:30;;;;;;;26.30;13.27;;;12.00;99.90;;;;;;5026857;28;20041;-63
2021/09/22 00:39:56;;;;;;;27.77;13.15;;;11.90;99.90;;;;;;5027742;28;20095;-60
2021/09/22 00:42:21;;;;;;;24.05;12.50;;;11.90;99.90;;;;;;5028438;28;20512;-62
2021/09/22 00:44:56;;;;;;;25.00;12.27;;;11.90;99.90;;;;;;5027601;28;20574;-61
2021/09/22 00:47:26;;;;;;;27.92;13.10;;;11.90;99.90;;;;;;5024331;28;20117;-62
2021/09/22 00:49:52;;;;;;;31.85;13.82;;;11.80;99.90;;;;;;5022856;28;20497;-63
2021/09/22 00:52:20;;;;;;;27.02;13.52;;;11.80;99.90;;;;;;5026882;28;20461;-62
2021/09/22 00:54:47;;;;;;;28.00;13.95;;;11.80;99.90;;;;;;5027453;28;20109;-61
2021/09/22 00:57:14;;;;;;;30.48;14.07;;;11.80;99.90;;;;;;5027798;28;20034;-62
2021/09/22 00:59:40;;;;;;;28.00;13.63;;;11.80;99.90;;;;;;5028279;28;20033;-62
2021/09/22 01:02:07;;;;;;;29.10;14.13;;;11.80;99.90;;;;;;5027809;28;20044;-61
2021/09/22 01:04:33;;;;;;;30.80;14.80;;;11.80;99.90;;;;;;5028110;28;20034;-63
2021/09/22 01:06:59;;;;;;;29.70;14.00;;;11.70;99.90;;;;;;5027843;28;20037;-63
2021/09/22 01:09:27;;;;;;;28.50;13.65;;;11.80;99.90;;;;;;5028117;28;20452;-62
2021/09/22 01:11:53;;;;;;;29.55;13.43;;;11.80;99.90;;;;;;5026559;28;20029;-63
2021/09/22 01:14:26;;;;;;;31.48;14.65;;;11.80;99.90;;;;;;5024011;28;20037;-62
2021/09/22 01:16:52;;;;;;;28.98;13.43;;;11.70;99.90;;;;;;5023681;28;20180;-62
2021/09/22 01:19:20;;;;;;;26.33;12.13;;;11.70;99.90;;;;;;5028408;28;20568;-64
2021/09/22 01:21:47;;;;;;;25.42;12.65;;;11.70;99.90;;;;;;5031339;28;20080;-60
2021/09/22 01:24:13;;;;;;;32.33;13.38;;;11.70;99.90;;;;;;5030010;28;20060;-61
2021/09/22 01:26:40;;;;;;;26.77;12.43;;;11.70;99.90;;;;;;5030131;28;20026;-62
2021/09/22 01:29:08;;;;;;;26.80;13.32;;;11.70;99.90;;;;;;5030659;28;20123;-63
2021/09/22 01:31:39;;;;;;;24.70;12.18;;;11.70;99.90;;;;;;5031160;28;20052;-62
2021/09/22 01:34:05;;;;;;;;;;;11.70;99.90;;;;;;5030776;28;20107;-63
2021/09/22 01:36:31;;;;;;;32.00;13.43;;;11.70;99.90;;;;;;5031061;28;19913;-60
2021/09/22 01:38:57;;;;;;;28.48;13.73;;;11.70;99.90;;;;;;5030173;28;20508;-61
2021/09/22 01:41:23;;;;;;;28.65;13.27;;;11.80;99.90;;;;;;5031104;28;20030;-62
2021/09/22 01:43:49;;;;;;;26.20;11.93;;;11.70;99.90;;;;;;5031258;28;20025;-62
2021/09/22 01:46:15;;;;;;;26.75;12.80;;;11.70;99.90;;;;;;5030692;28;20047;-61
2021/09/22 01:48:40;;;;;;;23.42;12.40;;;11.70;99.90;;;;;;5030825;28;20043;-62
2021/09/22 01:51:08;;;;;;;23.35;11.80;;;11.60;99.90;;;;;;5030596;28;20423;-61
2021/09/22 01:53:34;;;;;;;23.13;11.80;;;11.60;99.90;;;;;;5028323;28;20037;-61
2021/09/22 01:56:01;;;;;;;25.00;11.57;;;11.60;99.90;;;;;;5030631;28;20033;-61
2021/09/22 01:58:29;;;;;;;25.23;12.77;;;11.60;99.90;;;;;;5030728;28;20034;-63
2021/09/22 02:00:56;;;;;;;19.80;10.80;;;11.60;99.90;;;;;;5030820;28;20423;-62
2021/09/22 02:03:22;;;;;;;24.02;11.48;;;11.60;99.90;;;;;;5030311;28;20400;-61
2021/09/22 02:05:48;;;;;;;23.08;11.38;;;11.50;99.90;;;;;;5030627;28;20028;-61
2021/09/22 02:08:13;;;;;;;24.63;12.13;;;11.50;99.90;;;;;;5029722;28;20029;-63
2021/09/22 02:10:40;;;;;;;26.60;11.30;;;11.60;99.90;;;;;;5030884;28;20025;-63
2021/09/22 02:13:08;;;;;;;22.02;11.13;;;11.60;99.90;;;;;;5030031;28;20052;-63
2021/09/22 02:15:34;;;;;;;23.15;10.90;;;11.50;99.90;;;;;;5030508;28;20041;-61
2021/09/22 02:18:00;;;;;;;25.27;11.50;;;11.50;99.90;;;;;;5029538;28;20035;-61
2021/09/22 02:20:26;;;;;;;26.63;11.15;;;11.50;99.90;;;;;;5029192;28;20034;-64
2021/09/22 02:22:51;;;;;;;19.23;10.30;;;11.50;99.90;;;;;;5030054;28;20095;-62
2021/09/22 02:25:18;;;;;;;25.60;11.35;;;11.50;99.90;;;;;;5030173;28;20400;-63
2021/09/22 02:27:44;;;;;;;20.73;10.77;;;11.50;99.90;;;;;;5030186;28;20033;-62
2021/09/22 02:30:14;;;;;;;23.45;10.50;;;11.40;99.90;;;;;;5027887;28;20077;-62
2021/09/22 02:32:40;;;;;;;25.75;12.93;;;11.40;99.90;;;;;;5030003;28;20073;-63
2021/09/22 02:35:07;;;;;;;23.75;11.23;;;11.40;99.90;;;;;;5029842;28;20033;-61
2021/09/22 02:37:33;;;;;;;23.88;11.30;;;11.40;99.90;;;;;;5029697;28;20041;-63
2021/09/22 02:39:58;;;;;;;24.98;11.63;;;11.40;99.90;;;;;;5029670;28;20152;-61
2021/09/22 02:42:24;;;;;;;22.73;11.40;;;11.40;99.90;;;;;;5028071;28;20517;-62
2021/09/22 02:44:50;;;;;;;21.98;11.48;;;11.40;99.90;;;;;;5030131;28;20033;-63
2021/09/22 02:47:19;;;;;;;25.40;11.30;;;11.40;99.90;;;;;;5029371;28;20025;-63
2021/09/22 02:49:45;;;;;;;24.27;11.80;;;11.40;99.90;;;;;;5025682;28;20430;-61
2021/09/22 02:52:11;;;;;;;23.08;11.52;;;11.40;99.90;;;;;;5029088;28;20448;-61
2021/09/22 02:54:37;;;;;;;24.02;11.13;;;11.40;99.90;;;;;;5028034;28;20037;-61
2021/09/22 02:57:03;;;;;;;23.48;11.27;;;11.40;99.90;;;;;;5029226;28;20029;-61
2021/09/22 02:59:28;;;;;;;21.92;10.73;;;11.40;99.90;;;;;;5028876;28;20107;-62
2021/09/22 03:01:54;;;;;;;25.77;11.63;;;11.40;99.90;;;;;;5028592;28;20029;-64
2021/09/22 03:04:20;;;;;;;20.35;10.63;;;11.40;99.90;;;;;;5028875;28;20021;-61
2021/09/22 03:06:45;;;;;;;22.85;10.48;;;11.40;99.90;;;;;;5029390;28;20040;-63
2021/09/22 03:09:12;;;;;;;24.85;11.50;;;11.40;99.90;;;;;;5028845;28;20052;-62
2021/09/22 03:11:38;;;;;;;22.40;10.32;;;11.40;99.90;;;;;;5029452;28;20429;-62
2021/09/22 03:14:03;;;;;;;21.73;10.50;;;11.40;99.90;;;;;;5029276;28;20120;-63
2021/09/22 03:16:32;;;;;;;23.77;11.70;;;11.30;99.90;;;;;;5028868;28;20033;-62
2021/09/22 03:18:58;;;;;;;21.48;11.35;;;11.30;99.90;;;;;;5028696;28;20047;-60
2021/09/22 03:21:24;;;;;;;22.65;11.15;;;11.30;99.90;;;;;;5028975;28;20044;-62
2021/09/22 03:23:49;;;;;;;22.67;11.68;;;11.30;99.90;;;;;;5029146;28;20029;-62
2021/09/22 03:26:15;;;;;;;23.42;12.13;;;11.30;99.90;;;;;;5028767;28;20051;-63
2021/09/22 03:28:40;;;;;;;27.85;12.68;;;11.40;99.90;;;;;;5028762;28;20025;-61
2021/09/22 03:31:06;;;;;;;25.70;11.57;;;11.40;99.90;;;;;;5029385;28;20643;-62
2021/09/22 03:33:32;;;;;;;24.08;11.35;;;11.40;99.90;;;;;;5028259;28;20087;-63
2021/09/22 03:35:58;;;;;;;22.77;10.65;;;11.40;99.90;;;;;;5029148;28;20033;-62
2021/09/22 03:38:24;;;;;;;24.05;11.30;;;11.40;99.90;;;;;;5027029;28;20061;-61
2021/09/22 03:40:50;;;;;;;25.95;11.52;;;11.40;99.90;;;;;;5028990;28;20026;-61
2021/09/22 03:43:15;;;;;;;22.52;11.23;;;11.40;99.90;;;;;;5028261;28;20038;-61
2021/09/22 03:45:41;;;;;;;23.60;12.00;;;11.40;99.90;;;;;;5028663;28;20034;-61
2021/09/22 03:48:07;;;;;;;24.52;11.68;;;11.40;99.90;;;;;;5028159;28;20511;-62
2021/09/22 03:50:32;;;;;;;25.48;11.20;;;11.40;99.90;;;;;;5026880;28;20083;-61
2021/09/22 03:52:58;;;;;;;31.88;11.52;;;11.40;99.90;;;;;;5027194;28;20083;-61
2021/09/22 03:55:24;;;;;;;26.70;11.77;;;11.40;99.90;;;;;;5028241;28;20052;-62
2021/09/22 03:57:49;;;;;;;25.00;11.77;;;11.40;99.90;;;;;;5029005;28;20678;-62
2021/09/22 04:00:15;;;;;;;25.15;12.25;;;11.40;99.90;;;;;;5028655;28;20072;-61
2021/09/22 04:02:41;;;;;;;22.63;11.43;;;11.30;99.90;;;;;;5026797;28;20043;-60
2021/09/22 04:05:07;;;;;;;28.33;12.50;;;11.30;99.90;;;;;;5028511;28;20045;-61
2021/09/22 04:07:32;;;;;;;25.13;12.55;;;11.30;99.90;;;;;;5028252;28;20523;-63
2021/09/22 04:09:58;;;;;;;28.25;12.63;;;11.30;99.90;;;;;;5028537;28;20041;-61
2021/09/22 04:12:23;;;;;;;30.20;12.57;;;11.30;99.90;;;;;;5028234;28;20033;-62
2021/09/22 04:14:49;;;;;;;28.50;11.95;;;11.20;99.90;;;;;;5028597;28;20050;-61
2021/09/22 04:17:15;;;;;;;26.70;11.95;;;11.20;99.90;;;;;;5028282;28;20036;-61
2021/09/22 04:19:40;;;;;;;27.80;13.73;;;11.20;99.90;;;;;;5027991;28;20061;-62
2021/09/22 04:22:06;;;;;;;26.73;12.82;;;11.20;99.90;;;;;;5028562;28;20044;-62
2021/09/22 04:24:32;;;;;;;28.85;12.68;;;11.20;99.90;;;;;;5028261;28;20240;-62
2021/09/22 04:26:57;;;;;;;32.90;12.77;;;11.20;99.90;;;;;;5027153;28;20057;-63
2021/09/22 04:29:23;;;;;;;30.95;12.98;;;11.20;99.90;;;;;;5028347;28;20109;-63
2021/09/22 04:31:49;;;;;;;27.90;12.20;;;11.20;99.90;;;;;;5030822;28;20040;-62
2021/09/22 04:34:14;;;;;;;26.65;13.27;;;11.10;99.90;;;;;;5032492;28;20065;-63
2021/09/22 04:36:44;;;;;;;30.45;12.77;;;11.10;99.90;;;;;;5031208;28;20026;-62
2021/09/22 04:39:09;;;;;;;29.38;14.27;;;11.10;99.90;;;;;;5030201;28;20050;-63
2021/09/22 04:41:35;;;;;;;27.45;12.93;;;11.10;99.90;;;;;;5027969;28;20029;-61
2021/09/22 04:44:01;;;;;;;28.88;13.07;;;11.10;99.90;;;;;;5028259;28;21280;-63
2021/09/22 04:46:26;;;;;;;31.88;14.02;;;11.10;99.90;;;;;;5028150;28;20043;-61
2021/09/22 04:48:52;;;;;;;26.45;12.50;;;11.10;99.90;;;;;;5026753;28;20509;-62
2021/09/22 04:51:19;;;;;;;31.38;12.55;;;11.00;99.90;;;;;;5027412;28;20508;-62
2021/09/22 04:53:45;;;;;;;29.63;12.35;;;11.00;99.90;;;;;;5029380;28;20037;-62
2021/09/22 04:56:11;;;;;;;30.85;14.13;;;11.10;99.90;;;;;;5037551;28;20044;-62
2021/09/22 04:58:36;;;;;;;29.60;12.73;;;11.00;99.90;;;;;;5038216;28;20474;-62
2021/09/22 05:01:02;;;;;;;28.00;12.02;;;11.00;99.90;;;;;;5036534;28;20421;-62
2021/09/22 05:03:31;;;;;;;29.45;12.80;;;11.10;99.90;;;;;;5034673;28;20037;-61
2021/09/22 05:05:57;;;;;;;38.10;12.23;;;11.10;99.90;;;;;;5028858;28;20116;-62
2021/09/22 05:08:23;;;;;;;28.17;12.20;;;11.00;99.90;;;;;;5029854;28;20038;-61
2021/09/22 05:10:49;;;;;;;30.67;13.45;;;11.10;99.90;;;;;;5030990;28;20039;-61
2021/09/22 05:13:14;;;;;;;27.00;12.60;;;11.00;99.90;;;;;;5028320;28;20041;-62
2021/09/22 05:15:40;;;;;;;30.88;12.75;;;11.00;99.90;;;;;;5027859;28;20037;-61
2021/09/22 05:18:05;;;;;;;29.80;12.43;;;11.10;99.90;;;;;;5034895;28;20036;-62
2021/09/22 05:20:31;;;;;;;28.38;12.82;;;11.10;99.90;;;;;;5032992;28;20033;-61
2021/09/22 05:22:57;;;;;;;31.35;13.68;;;11.10;99.90;;;;;;5030086;28;20497;-62
2021/09/22 05:25:22;;;;;;;28.15;12.70;;;11.10;99.90;;;;;;5032364;28;20044;-62
2021/09/22 05:27:48;;;;;;;29.63;13.07;;;11.10;99.90;;;;;;5031172;28;20033;-63
2021/09/22 05:30:14;;;;;;;25.85;11.95;;;11.10;99.90;;;;;;5030340;28;20057;-61
2021/09/22 05:32:40;;;;;;;26.67;12.25;;;11.10;99.90;;;;;;5028549;28;20534;-62
2021/09/22 05:35:06;;;;;;;29.42;12.00;;;11.10;99.90;;;;;;5032293;28;20420;-62
2021/09/22 05:37:32;;;;;;;24.27;11.85;;;11.10;99.90;;;;;;5029076;28;20099;-61
2021/09/22 05:39:59;;;;;;;29.58;13.30;;;11.10;99.90;;;;;;5032219;28;20884;-60
2021/09/22 05:42:26;;;;;;;27.33;12.38;;;11.10;99.90;;;;;;5032725;28;20091;-62
2021/09/22 05:44:52;;;;;;;28.77;11.98;;;11.10;99.90;;;;;;5032075;28;20110;-63
2021/09/22 05:47:18;;;;;;;30.63;13.48;;;11.10;99.90;;;;;;5028704;28;20435;-62
2021/09/22 05:49:43;;;;;;;26.85;12.25;;;11.10;99.90;;;;;;5028238;28;20476;-62
2021/09/22 05:52:09;;;;;;;26.85;11.93;;;11.20;99.90;;;;;;5031753;28;20037;-61
2021/09/22 05:54:34;;;;;;;28.33;12.07;;;11.20;99.90;;;;;;5031065;28;20505;-62
2021/09/22 05:57:00;;;;;;;23.17;12.07;;;11.20;99.90;;;;;;5028284;28;20083;-61
2021/09/22 05:59:26;;;;;;;25.90;11.77;;;11.20;99.90;;;;;;5028852;28;20777;-63
2021/09/22 06:01:51;;;;;;;25.95;11.27;;;11.30;99.90;;;;;;5035750;28;20030;-61
2021/09/22 06:04:17;;;;;;;25.52;11.77;;;11.30;99.90;;;;;;5028538;28;20049;-62
2021/09/22 06:06:42;;;;;;;26.85;12.50;;;11.30;99.90;;;;;;5027444;28;20040;-62
2021/09/22 06:09:08;;;;;;;23.42;12.05;;;11.30;99.90;;;;;;5027395;28;20516;-62
2021/09/22 06:11:34;;;;;;;24.75;12.13;;;11.30;99.90;;;;;;5029781;28;20133;-62
2021/09/22 06:13:59;;;;;;;29.23;12.68;;;11.30;99.90;;;;;;5027471;28;20489;-64
2021/09/22 06:16:26;;;;;;;25.83;11.98;;;11.30;99.90;;;;;;5031234;28;20084;-61
2021/09/22 06:18:52;;;;;;;27.85;12.68;;;11.40;99.90;;;;;;5028707;28;20033;-62
2021/09/22 06:21:18;;;;;;;29.98;13.18;;;11.40;99.90;;;;;;5030842;28;20041;-62
2021/09/22 06:23:43;;;;;;;30.00;12.70;;;11.50;99.90;;;;;;5030543;28;20497;-61
2021/09/22 06:26:09;;;;;;;25.33;13.27;;;11.50;99.90;;;;;;5029655;28;20030;-66
2021/09/22 06:28:35;;;;;;;29.05;13.50;;;11.50;99.90;;;;;;5028468;28;20043;-62
2021/09/22 06:31:02;;;;;;;28.65;13.73;;;11.50;99.90;;;;;;5027704;28;20104;-63
2021/09/22 06:33:27;;;;;;;25.58;13.10;;;11.60;99.90;;;;;;5033682;28;20882;-60
2021/09/22 06:35:59;;;;;;;28.75;14.30;;;11.70;99.90;;;;;;5028512;28;20041;-61
2021/09/22 06:38:25;;;;;;;32.47;14.77;;;11.70;99.90;;;;;;5029177;28;20090;-62
2021/09/22 06:40:51;;;;;;;31.30;14.25;;;11.70;99.90;;;;;;5028209;28;20061;-62
2021/09/22 06:43:16;;;;;;;25.33;13.15;;;11.80;99.90;;;;;;5027088;28;20276;-62
2021/09/22 06:45:42;;;;;;;26.45;12.93;;;11.90;99.90;;;;;;5033000;28;20073;-60
2021/09/22 06:48:07;;;;;;;28.38;13.38;;;11.90;99.90;;;;;;5027510;28;20103;-62
2021/09/22 06:50:34;;;;;;;31.25;13.43;;;12.00;99.90;;;;;;5031759;28;20033;-62
2021/09/22 06:52:59;;;;;;;31.80;14.05;;;12.00;99.90;;;;;;5028806;28;20053;-61
2021/09/22 06:55:25;;;;;;;30.33;13.70;;;12.10;99.90;;;;;;5028188;28;20485;-61
2021/09/22 06:57:50;;;;;;;28.27;13.63;;;12.10;99.90;;;;;;5033858;28;20033;-62
2021/09/22 07:00:16;;;;;;;29.88;13.52;;;12.20;99.90;;;;;;5030920;28;20033;-61
2021/09/22 07:02:42;;;;;;;32.65;15.05;;;12.30;99.90;;;;;;5026831;28;20041;-62
2021/09/22 07:05:10;;;;;;;28.92;13.80;;;12.40;99.90;;;;;;5026260;28;20037;-64
2021/09/22 07:07:36;;;;;;;28.63;13.85;;;12.50;99.90;;;;;;5030275;28;20041;-62
2021/09/22 07:10:03;;;;;;;31.00;13.82;;;12.60;99.90;;;;;;5032579;28;20505;-62
2021/09/22 07:12:31;;;;;;;30.45;13.23;;;12.70;99.90;;;;;;5026792;28;20045;-61
2021/09/22 07:14:57;;;;;;;27.92;13.88;;;12.80;99.90;;;;;;5030760;28;20060;-62
2021/09/22 07:17:22;;;;;;;27.20;12.35;;;12.90;99.90;;;;;;5033802;28;20404;-62
2021/09/22 07:19:48;;;;;;;25.58;12.63;;;13.10;99.90;;;;;;5027907;28;20680;-62
2021/09/22 07:22:14;;;;;;;27.08;12.52;;;13.20;99.90;;;;;;5032106;28;20041;-61
2021/09/22 07:24:40;;;;;;;26.08;12.55;;;13.30;99.90;;;;;;5032644;28;20033;-61
2021/09/22 07:27:05;;;;;;;25.92;12.02;;;13.40;99.90;;;;;;5033729;28;20076;-62
2021/09/22 07:29:31;;;;;;;25.65;11.13;;;13.60;99.90;;;;;;5033678;28;20037;-61
2021/09/22 07:31:57;;;;;;;22.67;11.15;;;13.70;99.90;;;;;;5028580;28;20044;-61
2021/09/22 07:34:24;;;;;;;24.02;10.57;;;13.90;99.90;;;;;;5031770;28;20041;-62
2021/09/22 07:36:50;;;;;;;18.58;10.10;;;14.00;99.90;;;;;;5028621;28;20033;-61
2021/09/22 07:39:16;;;;;;;29.55;11.90;;;14.10;99.90;;;;;;5027698;28;20033;-62
2021/09/22 07:41:42;;;;;;;21.67;10.88;;;14.30;99.90;;;;;;5029978;28;20036;-62
2021/09/22 07:44:08;;;;;;;22.42;10.45;;;14.50;99.90;;;;;;5029762;28;20405;-61
2021/09/22 07:46:34;;;;;;;20.65;10.43;;;14.70;99.90;;;;;;5026232;28;20515;-61
2021/09/22 07:48:59;;;;;;;19.33;9.73;;;14.80;99.90;;;;;;5032227;28;20518;-62
2021/09/22 07:51:25;;;;;;;19.05;9.65;;;15.00;99.90;;;;;;5028652;28;20156;-61
2021/09/22 07:53:50;;;;;;;19.88;10.05;;;15.10;99.90;;;;;;5027232;28;20044;-61
2021/09/22 07:56:16;;;;;;;22.38;9.70;;;15.30;99.90;;;;;;5035166;28;20029;-62
2021/09/22 07:58:42;;;;;;;15.57;8.45;;;15.50;99.90;;;;;;5027382;28;20029;-61
2021/09/22 08:01:11;;;;;;;18.70;9.65;;;15.60;99.90;;;;;;5029503;28;20068;-62
2021/09/22 08:03:37;;;;;;;21.02;9.00;;;15.60;99.90;;;;;;5026967;28;21463;-61
2021/09/22 08:06:03;;;;;;;19.95;9.52;;;15.60;99.90;;;;;;5031715;28;20032;-60
2021/09/22 08:08:28;;;;;;;16.98;8.75;;;15.70;99.90;;;;;;5033295;28;20117;-61
2021/09/22 08:10:54;;;;;;;19.88;9.18;;;15.70;99.90;;;;;;5029845;28;20129;-61
2021/09/22 08:13:19;;;;;;;16.77;8.60;;;15.60;99.90;;;;;;5028697;28;20033;-64
2021/09/22 08:15:45;;;;;;;17.33;8.38;;;15.70;99.90;;;;;;5028942;28;20123;-62
2021/09/22 08:18:11;;;;;;;19.35;7.95;;;15.70;99.90;;;;;;5026450;28;20033;-61
2021/09/22 08:20:36;;;;;;;17.85;8.77;;;15.80;99.90;;;;;;5031781;28;20060;-62
2021/09/22 08:23:02;;;;;;;16.85;9.10;;;15.70;99.90;;;;;;5028986;28;20112;-60
2021/09/22 08:25:28;;;;;;;14.52;8.35;;;15.70;99.90;;;;;;5028630;28;20566;-61
2021/09/22 08:27:53;;;;;;;22.52;9.57;;;15.80;99.90;;;;;;5028493;28;20040;-61
2021/09/22 08:30:19;;;;;;;16.33;8.60;;;15.80;99.90;;;;;;5033881;28;20551;-61
2021/09/22 08:32:45;;;;;;;18.60;8.07;;;15.80;99.90;;;;;;5031405;28;20095;-62
2021/09/22 08:35:11;;;;;;;15.85;8.23;;;15.80;99.90;;;;;;5029891;28;20038;-62
2021/09/22 08:37:36;;;;;;;18.23;8.38;;;16.00;99.90;;;;;;5029130;28;20111;-61
2021/09/22 08:40:03;;;;;;;19.40;8.55;;;16.10;99.90;;;;;;5030167;28;20033;-61
2021/09/22 08:42:29;;;;;;;17.13;9.00;;;16.10;99.90;;;;;;5031671;28;20033;-61
2021/09/22 08:44:56;;;;;;;17.88;9.07;;;16.20;99.90;;;;;;5029491;28;20040;-62
2021/09/22 08:47:21;;;;;;;18.67;8.63;;;16.20;99.90;;;;;;5033065;28;20082;-61
2021/09/22 08:49:51;;;;;;;19.92;9.70;;;16.30;99.90;;;;;;5030196;28;20037;-61
2021/09/22 08:52:17;;;;;;;16.47;8.70;;;16.30;99.90;;;;;;5028809;28;20405;-62
2021/09/22 08:54:42;;;;;;;21.15;8.57;;;16.40;99.90;;;;;;5029513;28;20046;-62
2021/09/22 08:57:08;;;;;;;18.35;8.38;;;16.50;99.90;;;;;;5032089;28;20037;-62
2021/09/22 08:59:34;;;;;;;17.17;9.13;;;16.70;99.90;;;;;;5029183;28;20033;-61
2021/09/22 09:02:17;;;;;;;21.70;8.45;;;16.80;99.90;;;;;;5032660;28;20034;-61
2021/09/22 09:04:45;;;;;;;19.33;7.72;;;16.90;99.90;;;;;;5032060;28;20060;-61
2021/09/22 09:07:11;;;;;;;18.52;8.57;;;16.80;99.90;;;;;;5029005;28;20044;-62
2021/09/22 09:09:43;;;;;;;17.98;8.32;;;16.90;99.90;;;;;;5029578;28;20052;-62
2021/09/22 09:12:20;;;;;;;16.38;8.30;;;17.00;99.90;;;;;;5031950;28;20060;-62
2021/09/22 09:14:58;;;;;;;19.77;9.15;;;17.00;99.90;;;;;;5029242;28;20123;-62
2021/09/22 09:17:44;;;;;;;16.25;8.20;;;17.10;99.90;;;;;;5030732;28;20049;-61
2021/09/22 09:20:30;;;;;;;14.85;7.90;;;17.10;99.90;;;;;;5031848;28;20029;-62
2021/09/22 09:23:01;;;;;;;14.63;7.93;;;17.40;99.90;;;;;;5029678;28;20136;-61
2021/09/22 09:25:29;;;;;;;17.85;8.57;;;17.60;99.90;;;;;;5032693;28;20072;-61
2021/09/22 09:27:55;;;;;;;16.88;7.82;;;17.80;99.90;;;;;;5031892;28;20033;-61
2021/09/22 09:30:24;;;;;;;17.00;8.90;;;17.90;99.90;;;;;;5028388;28;20029;-61
2021/09/22 09:32:50;;;;;;;12.55;6.75;;;18.00;99.90;;;;;;5031628;28;20044;-63
2021/09/22 09:35:24;;;;;;;14.77;7.20;;;18.10;99.90;;;;;;5031468;28;20509;-62
2021/09/22 09:37:55;;;;;;;13.93;6.93;;;18.30;99.90;;;;;;5028234;28;20115;-62
2021/09/22 09:40:30;;;;;;;17.23;8.27;;;18.30;99.90;;;;;;5026843;28;20079;-62
2021/09/22 09:43:00;;;;;;;15.13;7.63;;;18.40;99.90;;;;;;5027207;28;20500;-62
2021/09/22 09:45:42;;;;;;;21.10;7.60;;;18.50;99.90;;;;;;5028134;28;20068;-62
2021/09/22 09:48:20;;;;;;;14.45;7.38;;;18.50;99.90;;;;;;5027584;28;20030;-61
2021/09/22 09:50:57;;;;;;;15.40;6.68;;;18.50;99.90;;;;;;5031922;28;20037;-61
2021/09/22 09:53:31;;;;;;;18.45;6.95;;;18.60;99.90;;;;;;5026753;28;20071;-61
2021/09/22 09:56:04;;;;;;;18.75;7.22;;;18.80;99.90;;;;;;5029373;28;20413;-60
2021/09/22 09:58:41;;;;;;;15.35;7.28;;;18.80;99.90;;;;;;5027492;28;20041;-62
2021/09/22 10:01:06;;;;;;;15.02;6.88;;;18.90;99.90;;;;;;5028012;28;20114;-61
2021/09/22 10:03:32;;;;;;;15.80;6.82;;;18.90;99.90;;;;;;5028804;28;20033;-62
2021/09/22 10:05:58;;;;;;;13.48;6.78;;;18.90;99.90;;;;;;5032308;28;20040;-62
2021/09/22 10:08:26;;;;;;;14.75;6.68;;;19.10;99.90;;;;;;5029559;28;20144;-63
2021/09/22 10:10:55;;;;;;;13.02;7.40;;;19.10;99.90;;;;;;5031257;28;20144;-62
2021/09/22 10:13:21;;;;;;;15.07;6.97;;;19.10;99.90;;;;;;5027499;28;20038;-61
2021/09/22 10:15:48;;;;;;;14.13;6.63;;;19.20;99.90;;;;;;5029547;28;20035;-61
2021/09/22 10:18:16;;;;;;;14.18;6.82;;;19.30;99.90;;;;;;5029679;28;20446;-63
2021/09/22 10:20:44;;;;;;;13.45;6.68;;;19.40;99.90;;;;;;5032164;28;20579;-62
2021/09/22 10:23:12;;;;;;;11.68;6.32;;;19.50;99.90;;;;;;5030814;28;20662;-63
2021/09/22 10:25:39;;;;;;;11.88;6.25;;;19.50;99.90;;;;;;5031739;28;20044;-61
2021/09/22 10:28:05;;;;;;;9.98;5.57;;;19.50;99.90;;;;;;5028864;28;20029;-61
2021/09/22 10:30:35;;;;;;;15.35;6.45;;;19.60;99.90;;;;;;5027373;28;20033;-61
2021/09/22 10:33:02;;;;;;;20.92;5.50;;;19.50;99.90;;;;;;5028447;28;20444;-61
2021/09/22 10:35:35;;;;;;;14.65;6.88;;;19.50;99.90;;;;;;5029339;28;20053;-61
2021/09/22 10:38:19;;;;;;;12.85;5.63;;;19.50;99.90;;;;;;5028751;28;20040;-61
2021/09/22 10:40:49;;;;;;;13.15;6.50;;;19.50;99.90;;;;;;5030503;28;20041;-61
2021/09/22 10:43:15;;;;;;;12.48;5.75;;;19.50;99.90;;;;;;5029939;28;20041;-60
2021/09/22 10:45:42;;;;;;;12.05;5.22;;;19.60;99.90;;;;;;5032728;28;20045;-61
2021/09/22 10:48:22;;;;;;;11.32;4.90;;;19.60;99.90;;;;;;5029374;28;20029;-60
2021/09/22 10:50:50;;;;;;;10.23;5.30;;;19.70;99.90;;;;;;5025513;28;20075;-61
2021/09/22 10:53:31;;;;;;;14.25;5.53;;;19.60;99.90;;;;;;5027640;28;20710;-61
2021/09/22 10:56:07;;;;;;;10.73;4.22;;;19.60;99.90;;;;;;5024239;28;20055;-63
2021/09/22 10:58:49;;;;;;;9.02;4.60;;;19.70;99.90;;;;;;5023436;28;20038;-63
2021/09/22 11:01:31;;;;;;;10.90;4.63;;;19.70;99.90;;;;;;5025803;28;20564;-61
2021/09/22 11:04:00;;;;;;;7.78;3.95;;;19.80;99.90;;;;;;5025340;28;20164;-60
2021/09/22 11:06:44;;;;;;;6.57;3.47;;;19.80;99.90;;;;;;5030033;28;20048;-59
2021/09/22 11:09:11;;;;;;;10.68;3.58;;;19.80;99.90;;;;;;5029368;28;20076;-59
2021/09/22 11:11:54;;;;;;;11.00;4.72;;;19.70;99.90;;;;;;5029745;28;20037;-59
2021/09/22 11:14:39;;;;;;;11.13;4.75;;;19.80;99.90;;;;;;5026116;28;20048;-60
2021/09/22 11:17:29;;;;;;;10.25;4.28;;;19.80;99.90;;;;;;5029631;28;20041;-60
2021/09/22 11:19:56;;;;;;;11.52;5.32;;;19.80;99.90;;;;;;5026770;28;20037;-62
2021/09/22 11:22:26;;;;;;;10.77;3.47;;;19.80;99.90;;;;;;5029179;28;20040;-59
2021/09/22 11:24:54;;;;;;;8.63;3.28;;;19.90;99.90;;;;;;5029596;28;20037;-60
2021/09/22 11:27:22;;;;;;;9.50;4.05;;;20.00;99.90;;;;;;5028729;28;20122;-61
2021/09/22 11:29:59;;;;;;;8.75;3.38;;;20.00;99.90;;;;;;5029353;28;20489;-60
2021/09/22 11:32:42;;;;;;;7.28;3.88;;;20.00;99.90;;;;;;5026770;28;20041;-60
2021/09/22 11:35:13;;;;;;;10.15;4.47;;;20.00;99.90;;;;;;5028633;28;20044;-60
2021/09/22 11:37:44;;;;;;;5.32;3.25;;;20.00;99.90;;;;;;5029139;28;20056;-60
2021/09/22 11:40:20;;;;;;;9.95;4.20;;;20.10;99.90;;;;;;5028322;28;20366;-60
2021/09/22 11:42:53;;;;;;;9.27;3.53;;;20.00;99.90;;;;;;5025584;28;20060;-62
2021/09/22 11:45:24;;;;;;;7.53;3.47;;;20.00;99.90;;;;;;5025271;28;20099;-60
2021/09/22 11:47:50;;;;;;;6.55;3.10;;;19.90;99.90;;;;;;5027828;28;20033;-61
2021/09/22 11:50:35;;;;;;;7.97;2.70;;;19.90;99.90;;;;;;5028351;28;20482;-61
2021/09/22 11:53:02;;;;;;;7.40;3.67;;;19.90;99.90;;;;;;5027266;28;20034;-61
2021/09/22 11:55:28;;;;;;;8.55;3.05;;;20.00;99.90;;;;;;5028368;28;20033;-60
2021/09/22 11:57:54;;;;;;;9.45;3.08;;;20.00;99.90;;;;;;5028906;28;20603;-60
2021/09/22 12:00:22;;;;;;;7.50;3.20;;;20.00;99.90;;;;;;5026845;28;20116;-59
2021/09/22 12:02:48;;;;;;;8.63;2.88;;;20.00;99.90;;;;;;5028626;28;20032;-61
2021/09/22 12:05:16;;;;;;;7.43;3.72;;;20.20;99.90;;;;;;5028314;28;20034;-60
2021/09/22 12:07:43;;;;;;;6.50;2.50;;;20.20;99.90;;;;;;5024791;28;20153;-59
2021/09/22 12:10:09;;;;;;;6.30;2.75;;;20.30;99.90;;;;;;5026540;28;20036;-61
2021/09/22 12:12:36;;;;;;;6.82;3.00;;;20.30;99.90;;;;;;5028829;28;20034;-61
2021/09/22 12:15:04;;;;;;;6.90;2.92;;;20.30;99.90;;;;;;5028718;28;20037;-59
2021/09/22 12:17:37;;;;;;;7.25;3.03;;;20.30;99.90;;;;;;5028280;28;20385;-59
2021/09/22 12:20:07;;;;;;;11.13;3.42;;;20.30;99.90;;;;;;5028448;28;20393;-60
2021/09/22 12:22:36;;;;;;;16.50;4.18;;;20.30;99.90;;;;;;5028134;28;20716;-60
2021/09/22 12:25:05;;;;;;;8.80;3.65;;;20.40;99.90;;;;;;5028181;28;20384;-60
2021/09/22 12:27:32;;;;;;;9.05;3.22;;;20.40;99.90;;;;;;5029196;28;20501;-61
2021/09/22 12:30:04;;;;;;;8.38;3.38;;;20.50;99.90;;;;;;5033756;28;20044;-60
2021/09/22 12:32:32;;;;;;;7.43;2.83;;;20.50;99.90;;;;;;5034394;28;20380;-60